sensor_id;sensor_type;location;lat;lon;timestamp;pressure;altitude;pressure_sealevel;temperature;humidity
69630;BME280;56857;52.212;5.496;2023-06-26T00:01:15;101253.50;;;22.99;100.00
69630;BME280;56857;52.212;5.496;2023-06-26T00:03:40;101252.78;;;22.91;100.00
69630;BME280;56857;52.212;5.496;2023-06-26T00:06:05;101256.22;;;22.87;100.00
69630;BME280;56857;52.212;5.496;2023-06-26T00:08:30;101256.69;;;22.84;100.00
69630;BME280;56857;52.212;5.496;2023-06-26T00:10:56;101256.09;;;22.82;100.00
69630;BME280;56857;52.212;5.496;2023-06-26T00:13:22;101252.84;;;22.80;100.00
69630;BME280;56857;52.212;5.496;2023-06-26T00:15:47;101251.19;;;22.79;100.00
69630;BME280;56857;52.212;5.496;2023-06-26T00:18:13;101251.19;;;22.79;100.00
69630;BME280;56857;52.212;5.496;2023-06-26T00:20:38;101251.19;;;22.79;100.00
69630;BME280;56857;52.212;5.496;2023-06-26T00:23:03;101258.47;;;22.78;100.00
69630;BME280;56857;52.212;5.496;2023-06-26T00:25:29;101257.66;;;22.78;100.00
69630;BME280;56857;52.212;5.496;2023-06-26T00:27:54;101249.56;;;22.78;100.00
69630;BME280;56857;52.212;5.496;2023-06-26T00:30:19;101252.25;;;22.78;100.00
69630;BME280;56857;52.212;5.496;2023-06-26T00:32:45;101249.56;;;22.78;100.00
69630;BME280;56857;52.212;5.496;2023-06-26T00:35:10;101256.59;;;22.79;100.00
69630;BME280;56857;52.212;5.496;2023-06-26T00:37:35;101244.16;;;22.78;100.00
69630;BME280;56857;52.212;5.496;2023-06-26T00:40:00;101241.22;;;22.79;100.00
69630;BME280;56857;52.212;5.496;2023-06-26T00:42:26;101240.63;;;22.77;100.00
69630;BME280;56857;52.212;5.496;2023-06-26T00:44:51;101241.94;;;22.75;100.00
69630;BME280;56857;52.212;5.496;2023-06-26T00:47:16;101234.28;;;22.72;100.00
69630;BME280;56857;52.212;5.496;2023-06-26T00:49:42;101234.78;;;22.68;100.00
69630;BME280;56857;52.212;5.496;2023-06-26T00:52:07;101234.66;;;22.63;100.00
69630;BME280;56857;52.212;5.496;2023-06-26T00:54:33;101226.00;;;22.61;100.00
69630;BME280;56857;52.212;5.496;2023-06-26T00:56:59;101228.91;;;22.60;100.00
69630;BME280;56857;52.212;5.496;2023-06-26T00:59:24;101224.84;;;22.57;100.00
69630;BME280;56857;52.212;5.496;2023-06-26T01:01:49;101235.06;;;22.55;100.00
69630;BME280;56857;52.212;5.496;2023-06-26T01:04:15;101231.44;;;22.50;100.00
69630;BME280;56857;52.212;5.496;2023-06-26T01:06:40;101236.50;;;22.46;100.00
69630;BME280;56857;52.212;5.496;2023-06-26T01:09:05;101237.31;;;22.47;100.00
69630;BME280;56857;52.212;5.496;2023-06-26T01:11:31;101242.72;;;22.47;100.00
69630;BME280;56857;52.212;5.496;2023-06-26T01:13:57;101236.97;;;22.43;100.00
69630;BME280;56857;52.212;5.496;2023-06-26T01:16:25;101233.66;;;22.41;100.00
69630;BME280;56857;52.212;5.496;2023-06-26T01:18:52;101245.53;;;22.40;100.00
69630;BME280;56857;52.212;5.496;2023-06-26T01:21:17;101243.91;;;22.39;100.00
69630;BME280;56857;52.212;5.496;2023-06-26T01:26:17;101248.84;;;22.42;100.00
69630;BME280;56857;52.212;5.496;2023-06-26T01:28:44;101252.91;;;22.44;100.00
69630;BME280;56857;52.212;5.496;2023-06-26T01:31:10;101252.69;;;22.46;100.00
69630;BME280;56857;52.212;5.496;2023-06-26T01:33:36;101265.94;;;22.48;100.00
69630;BME280;56857;52.212;5.496;2023-06-26T01:36:02;101262.22;;;22.49;100.00
69630;BME280;56857;52.212;5.496;2023-06-26T01:38:28;101266.53;;;22.50;100.00
69630;BME280;56857;52.212;5.496;2023-06-26T01:40:54;101279.00;;;22.51;100.00
69630;BME280;56857;52.212;5.496;2023-06-26T01:46:30;101283.34;;;22.52;100.00
69630;BME280;56857;52.212;5.496;2023-06-26T01:49:18;101278.75;;;22.52;100.00
69630;BME280;56857;52.212;5.496;2023-06-26T01:52:17;101282.88;;;22.55;100.00
69630;BME280;56857;52.212;5.496;2023-06-26T01:54:58;101276.19;;;22.57;100.00
69630;BME280;56857;52.212;5.496;2023-06-26T01:57:30;101277.81;;;22.58;100.00
69630;BME280;56857;52.212;5.496;2023-06-26T01:59:56;101286.72;;;22.59;100.00
69630;BME280;56857;52.212;5.496;2023-06-26T02:02:24;101277.56;;;22.60;100.00
69630;BME280;56857;52.212;5.496;2023-06-26T02:04:49;101271.13;;;22.61;100.00
69630;BME280;56857;52.212;5.496;2023-06-26T02:07:14;101271.13;;;22.61;100.00
69630;BME280;56857;52.212;5.496;2023-06-26T02:09:40;101270.03;;;22.62;100.00
69630;BME280;56857;52.212;5.496;2023-06-26T02:12:05;101275.72;;;22.60;100.00
69630;BME280;56857;52.212;5.496;2023-06-26T02:14:31;101278.41;;;22.60;100.00
69630;BME280;56857;52.212;5.496;2023-06-26T02:16:56;101286.72;;;22.59;100.00
69630;BME280;56857;52.212;5.496;2023-06-26T02:19:22;101289.44;;;22.59;100.00
69630;BME280;56857;52.212;5.496;2023-06-26T02:21:48;101294.25;;;22.57;100.00
69630;BME280;56857;52.212;5.496;2023-06-26T02:24:14;101293.69;;;22.55;100.00
69630;BME280;56857;52.212;5.496;2023-06-26T02:26:39;101284.97;;;22.53;100.00
69630;BME280;56857;52.212;5.496;2023-06-26T02:29:04;101283.34;;;22.52;100.00
69630;BME280;56857;52.212;5.496;2023-06-26T02:31:29;101294.16;;;22.52;100.00
69630;BME280;56857;52.212;5.496;2023-06-26T02:33:55;101289.22;;;22.49;100.00
69630;BME280;56857;52.212;5.496;2023-06-26T02:36:20;101290.25;;;22.48;100.00
69630;BME280;56857;52.212;5.496;2023-06-26T02:38:45;101288.88;;;22.45;100.00
69630;BME280;56857;52.212;5.496;2023-06-26T02:41:11;101284.78;;;22.42;100.00
69630;BME280;56857;52.212;5.496;2023-06-26T02:43:36;101297.69;;;22.40;100.00
69630;BME280;56857;52.212;5.496;2023-06-26T02:46:01;101298.16;;;22.37;100.00
69630;BME280;56857;52.212;5.496;2023-06-26T02:48:27;101294.03;;;22.35;100.00
69630;BME280;56857;52.212;5.496;2023-06-26T02:50:52;101298.88;;;22.33;100.00
69630;BME280;56857;52.212;5.496;2023-06-26T02:53:17;101299.91;;;22.32;100.00
69630;BME280;56857;52.212;5.496;2023-06-26T02:55:43;101306.63;;;22.29;100.00
69630;BME280;56857;52.212;5.496;2023-06-26T02:58:08;101306.03;;;22.27;100.00
69630;BME280;56857;52.212;5.496;2023-06-26T03:00:33;101300.03;;;22.25;100.00
69630;BME280;56857;52.212;5.496;2023-06-26T03:02:58;101308.41;;;22.24;100.00
69630;BME280;56857;52.212;5.496;2023-06-26T03:05:24;101315.69;;;22.23;100.00
69630;BME280;56857;52.212;5.496;2023-06-26T03:07:49;101317.19;;;22.19;100.00
69630;BME280;56857;52.212;5.496;2023-06-26T03:10:15;101321.78;;;22.18;100.00
69630;BME280;56857;52.212;5.496;2023-06-26T03:12:40;101312.25;;;22.16;100.00
69630;BME280;56857;52.212;5.496;2023-06-26T03:15:06;101308.97;;;22.14;100.00
69630;BME280;56857;52.212;5.496;2023-06-26T03:17:31;101302.97;;;22.12;100.00
69630;BME280;56857;52.212;5.496;2023-06-26T03:19:56;101310.25;;;22.11;100.00
69630;BME280;56857;52.212;5.496;2023-06-26T03:22:22;101313.16;;;22.10;100.00
69630;BME280;56857;52.212;5.496;2023-06-26T03:24:47;101321.50;;;22.08;100.00
69630;BME280;56857;52.212;5.496;2023-06-26T03:27:12;101314.69;;;22.06;100.00
69630;BME280;56857;52.212;5.496;2023-06-26T03:29:37;101320.34;;;22.04;100.00
69630;BME280;56857;52.212;5.496;2023-06-26T03:32:03;101323.84;;;22.05;100.00
69630;BME280;56857;52.212;5.496;2023-06-26T03:34:28;101324.06;;;22.03;100.00
69630;BME280;56857;52.212;5.496;2023-06-26T03:36:54;101332.63;;;22.00;100.00
69630;BME280;56857;52.212;5.496;2023-06-26T03:39:19;101342.63;;;21.99;100.00
69630;BME280;56857;52.212;5.496;2023-06-26T03:41:44;101337.69;;;21.96;100.00
69630;BME280;56857;52.212;5.496;2023-06-26T03:44:10;101327.94;;;21.95;100.00
69630;BME280;56857;52.212;5.496;2023-06-26T03:46:35;101323.63;;;21.94;100.00
69630;BME280;56857;52.212;5.496;2023-06-26T03:49:00;101326.78;;;21.91;100.00
69630;BME280;56857;52.212;5.496;2023-06-26T03:51:26;101340.28;;;21.91;100.00
69630;BME280;56857;52.212;5.496;2023-06-26T03:53:51;101356.34;;;21.86;100.00
69630;BME280;56857;52.212;5.496;2023-06-26T03:56:16;101356.81;;;21.83;100.00
69630;BME280;56857;52.212;5.496;2023-06-26T03:58:42;101353.50;;;21.81;100.00
69630;BME280;56857;52.212;5.496;2023-06-26T04:01:07;101358.31;;;21.79;100.00
69630;BME280;56857;52.212;5.496;2023-06-26T04:03:32;101362.91;;;21.79;100.00
69630;BME280;56857;52.212;5.496;2023-06-26T04:05:58;101368.53;;;21.77;100.00
69630;BME280;56857;52.212;5.496;2023-06-26T04:08:24;101373.31;;;21.75;100.00
69630;BME280;56857;52.212;5.496;2023-06-26T04:10:49;101368.97;;;21.74;100.00
69630;BME280;56857;52.212;5.496;2023-06-26T04:13:14;101381.66;;;21.73;100.00
69630;BME280;56857;52.212;5.496;2023-06-26T04:15:40;101386.44;;;21.71;100.00
69630;BME280;56857;52.212;5.496;2023-06-26T04:18:05;101375.28;;;21.68;100.00
69630;BME280;56857;52.212;5.496;2023-06-26T04:20:30;101385.50;;;21.66;100.00
69630;BME280;56857;52.212;5.496;2023-06-26T04:22:56;101386.78;;;21.63;100.00
69630;BME280;56857;52.212;5.496;2023-06-26T04:25:21;101390.53;;;21.62;100.00
69630;BME280;56857;52.212;5.496;2023-06-26T04:27:46;101382.88;;;21.59;100.00
69630;BME280;56857;52.212;5.496;2023-06-26T04:30:12;101392.03;;;21.58;100.00
69630;BME280;56857;52.212;5.496;2023-06-26T04:32:38;101394.38;;;21.55;100.00
69630;BME280;56857;52.212;5.496;2023-06-26T04:35:03;101391.88;;;21.53;100.00
69630;BME280;56857;52.212;5.496;2023-06-26T04:37:28;101388.63;;;21.51;100.00
69630;BME280;56857;52.212;5.496;2023-06-26T04:39:53;101395.28;;;21.48;100.00
69630;BME280;56857;52.212;5.496;2023-06-26T04:42:19;101397.16;;;21.48;100.00
69630;BME280;56857;52.212;5.496;2023-06-26T04:44:44;101396.34;;;21.47;100.00
69630;BME280;56857;52.212;5.496;2023-06-26T04:47:09;101405.72;;;21.45;100.00
69630;BME280;56857;52.212;5.496;2023-06-26T04:49:35;101407.59;;;21.44;100.00
69630;BME280;56857;52.212;5.496;2023-06-26T04:52:00;101407.00;;;21.42;100.00
69630;BME280;56857;52.212;5.496;2023-06-26T04:54:26;101409.69;;;21.42;100.00
69630;BME280;56857;52.212;5.496;2023-06-26T04:56:51;101421.75;;;21.40;100.00
69630;BME280;56857;52.212;5.496;2023-06-26T04:59:17;101426.56;;;21.38;100.00
69630;BME280;56857;52.212;5.496;2023-06-26T05:01:42;101427.38;;;21.38;100.00
69630;BME280;56857;52.212;5.496;2023-06-26T05:04:07;101422.19;;;21.37;100.00
69630;BME280;56857;52.212;5.496;2023-06-26T05:06:32;101432.38;;;21.35;100.00
69630;BME280;56857;52.212;5.496;2023-06-26T05:08:58;101441.72;;;21.32;100.00
69630;BME280;56857;52.212;5.496;2023-06-26T05:11:24;101435.53;;;21.32;100.00
69630;BME280;56857;52.212;5.496;2023-06-26T05:13:50;101440.31;;;21.29;100.00
69630;BME280;56857;52.212;5.496;2023-06-26T05:16:15;101439.50;;;21.29;100.00
69630;BME280;56857;52.212;5.496;2023-06-26T05:18:40;101437.84;;;21.28;100.00
69630;BME280;56857;52.212;5.496;2023-06-26T05:21:06;101433.50;;;21.27;100.00
69630;BME280;56857;52.212;5.496;2023-06-26T05:23:32;101441.00;;;21.25;100.00
69630;BME280;56857;52.212;5.496;2023-06-26T05:25:58;101442.84;;;21.24;100.00
69630;BME280;56857;52.212;5.496;2023-06-26T05:28:24;101451.19;;;21.23;100.00
69630;BME280;56857;52.212;5.496;2023-06-26T05:30:50;101450.34;;;21.22;100.00
69630;BME280;56857;52.212;5.496;2023-06-26T05:33:18;101454.09;;;21.21;100.00
69630;BME280;56857;52.212;5.496;2023-06-26T05:35:45;101453.50;;;21.19;100.00
69630;BME280;56857;52.212;5.496;2023-06-26T05:38:10;101456.41;;;21.18;100.00
69630;BME280;56857;52.212;5.496;2023-06-26T05:40:36;101458.28;;;21.17;100.00
69630;BME280;56857;52.212;5.496;2023-06-26T05:43:02;101470.34;;;21.15;100.00
69630;BME280;56857;52.212;5.496;2023-06-26T05:45:27;101460.59;;;21.14;100.00
69630;BME280;56857;52.212;5.496;2023-06-26T05:47:52;101468.91;;;21.12;100.00
69630;BME280;56857;52.212;5.496;2023-06-26T05:50:18;101475.16;;;21.13;100.00
69630;BME280;56857;52.212;5.496;2023-06-26T05:52:44;101479.69;;;21.12;100.00
69630;BME280;56857;52.212;5.496;2023-06-26T05:55:10;101483.44;;;21.11;100.00
69630;BME280;56857;52.212;5.496;2023-06-26T05:57:37;101478.06;;;21.11;100.00
69630;BME280;56857;52.212;5.496;2023-06-26T06:00:03;101480.16;;;21.09;100.00
69630;BME280;56857;52.212;5.496;2023-06-26T06:02:28;101490.94;;;21.09;100.00
69630;BME280;56857;52.212;5.496;2023-06-26T06:04:54;101492.78;;;21.09;100.00
69630;BME280;56857;52.212;5.496;2023-06-26T06:07:19;101495.72;;;21.07;100.00
69630;BME280;56857;52.212;5.496;2023-06-26T06:09:44;101510.03;;;21.08;100.00
69630;BME280;56857;52.212;5.496;2023-06-26T06:12:10;101515.41;;;21.08;100.00
69630;BME280;56857;52.212;5.496;2023-06-26T06:14:35;101515.41;;;21.08;100.00
69630;BME280;56857;52.212;5.496;2023-06-26T06:17:01;101514.59;;;21.07;100.00
69630;BME280;56857;52.212;5.496;2023-06-26T06:19:26;101518.34;;;21.06;100.00
69630;BME280;56857;52.212;5.496;2023-06-26T06:21:52;101526.44;;;21.06;100.00
69630;BME280;56857;52.212;5.496;2023-06-26T06:24:17;101525.38;;;21.07;100.00
69630;BME280;56857;52.212;5.496;2023-06-26T06:26:43;101524.13;;;21.10;100.00
69630;BME280;56857;52.212;5.496;2023-06-26T06:29:08;101529.28;;;21.11;100.00
69630;BME280;56857;52.212;5.496;2023-06-26T06:31:33;101529.88;;;21.13;100.00
69630;BME280;56857;52.212;5.496;2023-06-26T06:33:59;101535.84;;;21.15;100.00
69630;BME280;56857;52.212;5.496;2023-06-26T06:36:24;101534.00;;;21.16;100.00
69630;BME280;56857;52.212;5.496;2023-06-26T06:38:50;101539.41;;;21.16;100.00
69630;BME280;56857;52.212;5.496;2023-06-26T06:41:15;101552.03;;;21.15;100.00
69630;BME280;56857;52.212;5.496;2023-06-26T06:43:40;101556.41;;;21.16;100.00
69630;BME280;56857;52.212;5.496;2023-06-26T06:46:05;101569.44;;;21.19;100.00
69630;BME280;56857;52.212;5.496;2023-06-26T06:48:31;101573.34;;;21.23;100.00
69630;BME280;56857;52.212;5.496;2023-06-26T06:50:57;101569.38;;;21.26;100.00
69630;BME280;56857;52.212;5.496;2023-06-26T06:53:22;101584.88;;;21.30;100.00
69630;BME280;56857;52.212;5.496;2023-06-26T06:55:47;101585.50;;;21.33;100.00
69630;BME280;56857;52.212;5.496;2023-06-26T06:58:13;101597.09;;;21.33;100.00
69630;BME280;56857;52.212;5.496;2023-06-26T07:00:38;101593.34;;;21.34;100.00
69630;BME280;56857;52.212;5.496;2023-06-26T07:03:03;101586.50;;;21.38;100.00
69630;BME280;56857;52.212;5.496;2023-06-26T07:05:29;101586.25;;;21.40;100.00
69630;BME280;56857;52.212;5.496;2023-06-26T07:07:54;101596.03;;;21.41;100.00
69630;BME280;56857;52.212;5.496;2023-06-26T07:10:19;101598.72;;;21.41;100.00
69630;BME280;56857;52.212;5.496;2023-06-26T07:12:44;101604.94;;;21.41;100.00
69630;BME280;56857;52.212;5.496;2023-06-26T07:15:10;101592.47;;;21.40;100.00
69630;BME280;56857;52.212;5.496;2023-06-26T07:17:36;101597.06;;;21.40;100.00
69630;BME280;56857;52.212;5.496;2023-06-26T07:20:02;101608.91;;;21.39;100.00
69630;BME280;56857;52.212;5.496;2023-06-26T07:22:27;101614.06;;;21.40;100.00
69630;BME280;56857;52.212;5.496;2023-06-26T07:24:52;101620.31;;;21.41;100.00
69630;BME280;56857;52.212;5.496;2023-06-26T07:27:18;101617.59;;;21.41;100.00
69630;BME280;56857;52.212;5.496;2023-06-26T07:29:43;101622.56;;;21.44;100.00
69630;BME280;56857;52.212;5.496;2023-06-26T07:32:08;101617.53;;;21.47;100.00
69630;BME280;56857;52.212;5.496;2023-06-26T07:34:34;101611.91;;;21.49;100.00
69630;BME280;56857;52.212;5.496;2023-06-26T07:36:59;101615.22;;;21.51;100.00
69630;BME280;56857;52.212;5.496;2023-06-26T07:39:25;101615.78;;;21.53;100.00
69630;BME280;56857;52.212;5.496;2023-06-26T07:41:50;101622.41;;;21.57;100.00
69630;BME280;56857;52.212;5.496;2023-06-26T07:44:15;101636.03;;;21.62;100.00
69630;BME280;56857;52.212;5.496;2023-06-26T07:46:41;101628.34;;;21.66;100.00
69630;BME280;56857;52.212;5.496;2023-06-26T07:49:06;101628.72;;;21.69;100.00
69630;BME280;56857;52.212;5.496;2023-06-26T07:51:31;101644.47;;;21.72;100.00
69630;BME280;56857;52.212;5.496;2023-06-26T07:53:57;101643.41;;;21.73;100.00
69630;BME280;56857;52.212;5.496;2023-06-26T07:56:22;101642.59;;;21.73;100.00
69630;BME280;56857;52.212;5.496;2023-06-26T07:58:47;101648.00;;;21.73;100.00
69630;BME280;56857;52.212;5.496;2023-06-26T08:01:13;101642.78;;;21.71;100.00
69630;BME280;56857;52.212;5.496;2023-06-26T08:03:38;101644.22;;;21.74;100.00
69630;BME280;56857;52.212;5.496;2023-06-26T08:06:03;101642.16;;;21.76;100.00
69630;BME280;56857;52.212;5.496;2023-06-26T08:08:29;101647.66;;;21.81;100.00
69630;BME280;56857;52.212;5.496;2023-06-26T08:10:54;101645.13;;;21.86;100.00
69630;BME280;56857;52.212;5.496;2023-06-26T08:13:19;101648.66;;;21.87;100.00
69630;BME280;56857;52.212;5.496;2023-06-26T08:15:45;101641.38;;;21.87;100.00
69630;BME280;56857;52.212;5.496;2023-06-26T08:18:10;101639.91;;;21.91;100.00
69630;BME280;56857;52.212;5.496;2023-06-26T08:20:36;101647.09;;;21.97;100.00
69630;BME280;56857;52.212;5.496;2023-06-26T08:23:01;101654.13;;;21.98;100.00
69630;BME280;56857;52.212;5.496;2023-06-26T08:25:26;101661.41;;;21.98;100.00
69630;BME280;56857;52.212;5.496;2023-06-26T08:27:52;101656.22;;;21.96;100.00
69630;BME280;56857;52.212;5.496;2023-06-26T08:30:17;101653.91;;;22.00;100.00
69630;BME280;56857;52.212;5.496;2023-06-26T08:32:42;101657.44;;;22.01;100.00
69630;BME280;56857;52.212;5.496;2023-06-26T08:35:08;101662.16;;;22.05;100.00
69630;BME280;56857;52.212;5.496;2023-06-26T08:37:33;101659.47;;;22.05;100.00
69630;BME280;56857;52.212;5.496;2023-06-26T08:39:59;101666.38;;;22.01;100.00
69630;BME280;56857;52.212;5.496;2023-06-26T08:42:25;101670.34;;;21.98;100.00
69630;BME280;56857;52.212;5.496;2023-06-26T08:44:50;101670.00;;;22.07;100.00
69630;BME280;56857;52.212;5.496;2023-06-26T08:47:16;101667.25;;;22.13;100.00
69630;BME280;56857;52.212;5.496;2023-06-26T08:50:06;101681.09;;;22.24;100.00
69630;BME280;56857;52.212;5.496;2023-06-26T08:52:39;101681.00;;;22.30;100.00
69630;BME280;56857;52.212;5.496;2023-06-26T08:55:09;101682.88;;;22.30;100.00
69630;BME280;56857;52.212;5.496;2023-06-26T08:57:35;101673.06;;;22.35;100.00
69630;BME280;56857;52.212;5.496;2023-06-26T09:00:01;101682.09;;;22.41;100.00
69630;BME280;56857;52.212;5.496;2023-06-26T09:02:27;101692.09;;;22.40;100.00
69630;BME280;56857;52.212;5.496;2023-06-26T09:04:53;101695.16;;;22.44;100.00
69630;BME280;56857;52.212;5.496;2023-06-26T09:07:18;101700.81;;;22.42;100.00
69630;BME280;56857;52.212;5.496;2023-06-26T09:09:43;101709.56;;;22.38;100.00
69630;BME280;56857;52.212;5.496;2023-06-26T09:12:09;101707.31;;;22.35;100.00
69630;BME280;56857;52.212;5.496;2023-06-26T09:14:35;101718.13;;;22.35;100.00
69630;BME280;56857;52.212;5.496;2023-06-26T09:17:01;101709.28;;;22.46;100.00
69630;BME280;56857;52.212;5.496;2023-06-26T09:19:26;101723.31;;;22.55;100.00
69630;BME280;56857;52.212;5.496;2023-06-26T09:21:52;101729.06;;;22.58;100.00
69630;BME280;56857;52.212;5.496;2023-06-26T09:24:17;101731.06;;;22.63;100.00
69630;BME280;56857;52.212;5.496;2023-06-26T09:26:43;101735.09;;;22.60;100.00
69630;BME280;56857;52.212;5.496;2023-06-26T09:29:09;101731.69;;;22.65;100.00
69630;BME280;56857;52.212;5.496;2023-06-26T09:31:38;101734.66;;;22.75;100.00
69630;BME280;56857;52.212;5.496;2023-06-26T09:34:03;101743.88;;;22.86;100.00
69630;BME280;56857;52.212;5.496;2023-06-26T09:36:29;101739.41;;;22.91;100.00
69630;BME280;56857;52.212;5.496;2023-06-26T09:38:55;101736.44;;;23.00;100.00
69630;BME280;56857;52.212;5.496;2023-06-26T09:41:20;101736.88;;;22.97;100.00
69630;BME280;56857;52.212;5.496;2023-06-26T09:43:50;101744.25;;;22.89;100.00
69630;BME280;56857;52.212;5.496;2023-06-26T09:46:26;101740.88;;;22.94;100.00
69630;BME280;56857;52.212;5.496;2023-06-26T09:49:11;101743.63;;;23.06;100.00
69630;BME280;56857;52.212;5.496;2023-06-26T09:51:38;101754.34;;;23.12;100.00
69630;BME280;56857;52.212;5.496;2023-06-26T09:54:04;101758.47;;;23.15;100.00
69630;BME280;56857;52.212;5.496;2023-06-26T09:56:30;101762.97;;;23.21;100.00
69630;BME280;56857;52.212;5.496;2023-06-26T09:58:57;101770.00;;;23.22;100.00
69630;BME280;56857;52.212;5.496;2023-06-26T10:01:23;101763.31;;;23.25;100.00
69630;BME280;56857;52.212;5.496;2023-06-26T10:03:48;101755.91;;;23.32;100.00
69630;BME280;56857;52.212;5.496;2023-06-26T10:06:15;101771.38;;;23.43;100.00
69630;BME280;56857;52.212;5.496;2023-06-26T10:08:44;101771.84;;;23.52;100.00
69630;BME280;56857;52.212;5.496;2023-06-26T10:11:21;101779.41;;;23.62;100.00
69630;BME280;56857;52.212;5.496;2023-06-26T10:13:49;101780.94;;;23.69;100.00
69630;BME280;56857;52.212;5.496;2023-06-26T10:16:23;101790.03;;;23.75;100.00
69630;BME280;56857;52.212;5.496;2023-06-26T10:18:53;101782.59;;;23.82;100.00
69630;BME280;56857;52.212;5.496;2023-06-26T10:21:20;101794.50;;;23.81;100.00
69630;BME280;56857;52.212;5.496;2023-06-26T10:23:47;101802.03;;;23.79;100.00
69630;BME280;56857;52.212;5.496;2023-06-26T10:26:14;101798.38;;;23.73;100.00
69630;BME280;56857;52.212;5.496;2023-06-26T10:28:40;101797.78;;;23.71;100.00
69630;BME280;56857;52.212;5.496;2023-06-26T10:31:08;101806.28;;;23.75;100.00
69630;BME280;56857;52.212;5.496;2023-06-26T10:33:36;101804.59;;;23.74;98.74
69630;BME280;56857;52.212;5.496;2023-06-26T10:36:19;101799.31;;;23.79;99.81
69630;BME280;56857;52.212;5.496;2023-06-26T10:38:52;101810.63;;;23.88;99.47
69630;BME280;56857;52.212;5.496;2023-06-26T10:41:21;101803.22;;;23.95;99.12
69630;BME280;56857;52.212;5.496;2023-06-26T10:44:15;101806.63;;;24.02;96.60
69630;BME280;56857;52.212;5.496;2023-06-26T10:47:03;101806.19;;;23.93;95.71
69630;BME280;56857;52.212;5.496;2023-06-26T10:49:29;101817.00;;;23.93;93.59
69630;BME280;56857;52.212;5.496;2023-06-26T10:51:54;101808.41;;;23.96;94.92
69630;BME280;56857;52.212;5.496;2023-06-26T10:54:20;101800.38;;;24.01;93.60
69630;BME280;56857;52.212;5.496;2023-06-26T10:56:54;101825.59;;;24.02;93.31
69630;BME280;56857;52.212;5.496;2023-06-26T10:59:21;101816.75;;;24.07;92.92
69630;BME280;56857;52.212;5.496;2023-06-26T11:04:35;101822.41;;;24.17;90.70
69630;BME280;56857;52.212;5.496;2023-06-26T11:12:43;101834.53;;;23.91;88.16
69630;BME280;56857;52.212;5.496;2023-06-26T11:15:13;101832.50;;;23.86;89.52
69630;BME280;56857;52.212;5.496;2023-06-26T11:17:40;101837.47;;;23.89;88.17
69630;BME280;56857;52.212;5.496;2023-06-26T11:20:07;101838.31;;;23.90;87.08
69630;BME280;56857;52.212;5.496;2023-06-26T11:22:35;101837.38;;;23.84;87.03
69630;BME280;56857;52.212;5.496;2023-06-26T11:25:01;101833.91;;;23.77;86.15
69630;BME280;56857;52.212;5.496;2023-06-26T11:27:38;101849.59;;;23.75;87.61
69630;BME280;56857;52.212;5.496;2023-06-26T11:30:05;101857.81;;;23.80;87.67
69630;BME280;56857;52.212;5.496;2023-06-26T11:32:31;101852.31;;;23.87;89.06
69630;BME280;56857;52.212;5.496;2023-06-26T11:34:56;101853.38;;;23.97;88.18
69630;BME280;56857;52.212;5.496;2023-06-26T11:37:21;101858.34;;;24.00;87.67
69630;BME280;56857;52.212;5.496;2023-06-26T11:39:47;101846.06;;;23.98;88.73
69630;BME280;56857;52.212;5.496;2023-06-26T11:42:12;101862.31;;;23.98;89.69
69630;BME280;56857;52.212;5.496;2023-06-26T11:44:44;101850.81;;;24.02;90.14
69630;BME280;56857;52.212;5.496;2023-06-26T11:47:17;101863.63;;;24.07;90.13
69630;BME280;56857;52.212;5.496;2023-06-26T11:49:46;101874.00;;;24.10;88.64
69630;BME280;56857;52.212;5.496;2023-06-26T11:52:12;101883.75;;;24.11;87.97
69630;BME280;56857;52.212;5.496;2023-06-26T11:54:38;101892.34;;;24.08;85.75
69630;BME280;56857;52.212;5.496;2023-06-26T11:57:03;101881.53;;;24.08;86.89
69630;BME280;56857;52.212;5.496;2023-06-26T11:59:39;101881.88;;;24.12;86.88
69630;BME280;56857;52.212;5.496;2023-06-26T12:02:23;101891.69;;;24.13;86.73
69630;BME280;56857;52.212;5.496;2023-06-26T12:04:49;101892.81;;;24.05;80.56
69630;BME280;56857;52.212;5.496;2023-06-26T12:07:14;101899.19;;;23.99;77.51
69630;BME280;56857;52.212;5.496;2023-06-26T12:09:45;101901.41;;;24.02;79.90
69630;BME280;56857;52.212;5.496;2023-06-26T12:12:12;101913.22;;;24.08;78.81
69630;BME280;56857;52.212;5.496;2023-06-26T12:14:39;101914.63;;;24.10;78.33
69630;BME280;56857;52.212;5.496;2023-06-26T12:17:09;101911.81;;;24.17;79.32
69630;BME280;56857;52.212;5.496;2023-06-26T12:19:37;101922.19;;;24.20;78.07
69630;BME280;56857;52.212;5.496;2023-06-26T12:22:06;101918.97;;;24.11;74.24
69630;BME280;56857;52.212;5.496;2023-06-26T12:24:31;101922.38;;;23.95;72.28
69630;BME280;56857;52.212;5.496;2023-06-26T12:26:56;101917.31;;;23.87;75.59
69630;BME280;56857;52.212;5.496;2023-06-26T12:29:30;101914.59;;;23.87;77.44
69630;BME280;56857;52.212;5.496;2023-06-26T12:31:56;101909.19;;;23.87;75.47
69630;BME280;56857;52.212;5.496;2023-06-26T12:34:48;101917.53;;;23.85;77.40
69630;BME280;56857;52.212;5.496;2023-06-26T12:37:14;101909.66;;;23.84;74.88
69630;BME280;56857;52.212;5.496;2023-06-26T12:39:56;101922.09;;;23.73;73.90
69630;BME280;56857;52.212;5.496;2023-06-26T12:42:26;101918.63;;;23.66;77.24
69630;BME280;56857;52.212;5.496;2023-06-26T12:44:52;101927.13;;;23.69;78.51
69630;BME280;56857;52.212;5.496;2023-06-26T12:47:23;101928.09;;;23.75;79.87
69630;BME280;56857;52.212;5.496;2023-06-26T12:49:52;101918.44;;;23.79;80.40
69630;BME280;56857;52.212;5.496;2023-06-26T12:52:18;101932.25;;;23.89;81.55
69630;BME280;56857;52.212;5.496;2023-06-26T12:54:44;101936.28;;;23.98;81.02